Time;durP1;ratioP1;P1;durP2;ratioP2;P2;SDS_P1;SDS_P2;PMS_P1;PMS_P2;Temp;Humidity;BMP_temperature;BMP_pressure;BME280_temperature;BME280_humidity;BME280_pressure;Samples;Min_cycle;Max_cycle;Signal;HPM_P1;HPM_P2
2022/06/30 00:01:34;;;;;;;;;0.00;0.00;;;;;20.89;52.08;100715.56;5076829;28;45145;-85
2022/06/30 00:04:00;;;;;;;;;0.00;0.00;;;;;20.98;51.92;100741.31;5074767;28;44928;-83
2022/06/30 00:06:26;;;;;;;;;1.00;0.00;;;;;20.95;51.52;100752.03;5074123;28;44965;-84
2022/06/30 00:08:52;;;;;;;;;1.00;0.00;;;;;20.69;51.45;100717.47;5081655;28;45198;-84
2022/06/30 00:11:19;;;;;;;;;0.00;0.00;;;;;20.67;51.84;100721.97;5073932;28;45361;-84
2022/06/30 00:13:45;;;;;;;;;0.00;0.00;;;;;20.69;51.53;100746.84;5056216;28;45438;-85
2022/06/30 00:16:10;;;;;;;;;0.00;0.00;;;;;20.65;51.74;100756.69;5081658;28;45094;-83
2022/06/30 00:18:36;;;;;;;;;0.00;0.00;;;;;20.34;51.65;100707.88;5081580;28;44977;-83
2022/06/30 00:21:01;;;;;;;;;0.00;0.00;;;;;20.52;52.23;100746.97;5093381;28;45622;-81
2022/06/30 00:23:27;;;;;;;;;0.00;0.00;;;;;20.38;52.27;100719.44;5094017;28;44921;-85
2022/06/30 00:25:52;;;;;;;;;0.00;0.00;;;;;20.32;51.98;100726.59;5095111;28;45077;-83
2022/06/30 00:28:19;;;;;;;;;0.00;0.00;;;;;20.08;51.96;100703.59;5093358;28;45310;-83
2022/06/30 00:30:50;;;;;;;;;0.00;0.00;;;;;20.33;52.68;100760.38;5075701;28;45567;-87
2022/06/30 00:33:16;;;;;;;;;0.00;0.00;;;;;20.20;52.05;100753.38;5074400;28;45107;-81
2022/06/30 00:35:43;;;;;;;;;0.00;0.00;;;;;20.13;52.49;100748.03;5074742;28;45278;-82
2022/06/30 00:38:08;;;;;;;;;1.00;1.00;;;;;20.12;52.94;100751.63;5074371;28;45273;-88
2022/06/30 00:40:38;;;;;;;;;0.00;0.00;;;;;19.97;52.89;100734.78;5074690;28;45452;-86
2022/06/30 00:43:04;;;;;;;;;0.00;0.00;;;;;20.08;53.38;100756.94;5073924;28;45488;-86
2022/06/30 00:45:30;;;;;;;;;0.00;0.00;;;;;19.96;53.57;100724.13;5075350;28;45081;-83
2022/06/30 00:47:55;;;;;;;;;0.25;0.25;;;;;19.77;53.86;100705.50;5085785;28;45139;-82
2022/06/30 00:50:20;;;;;;;;;0.00;0.00;;;;;19.86;53.47;100725.94;5091752;28;45929;-84
2022/06/30 00:52:49;;;;;;;;;0.00;0.00;;;;;19.84;53.36;100723.25;5094068;28;45035;-87
2022/06/30 00:55:16;;;;;;;;;0.00;0.00;;;;;20.00;53.52;100750.78;5093595;27;45001;-84
2022/06/30 00:57:43;;;;;;;;;0.00;0.00;;;;;19.74;53.71;100709.97;5094156;28;45201;-84
2022/06/30 01:00:10;;;;;;;;;1.25;1.00;;;;;19.87;53.60;100725.03;5069382;28;46449;-86
2022/06/30 01:02:36;;;;;;;;;0.00;0.00;;;;;19.88;53.80;100715.25;5074459;28;45359;-86
2022/06/30 01:05:03;;;;;;;;;0.50;0.00;;;;;19.89;54.16;100731.22;5072716;28;45076;-81
2022/06/30 01:07:29;;;;;;;;;0.00;0.00;;;;;19.86;53.98;100725.94;5073449;28;45371;-82
2022/06/30 01:12:42;;;;;;;;;0.00;0.00;;;;;19.68;53.71;100715.31;5093091;28;45185;-78
2022/06/30 01:15:08;;;;;;;;;0.25;0.25;;;;;19.83;54.16;100753.50;5091107;28;45067;-80
2022/06/30 01:17:33;;;;;;;;;0.00;0.00;;;;;19.53;54.58;100700.22;5090479;28;44984;-85
2022/06/30 01:20:00;;;;;;;;;0.00;0.00;;;;;19.50;54.62;100703.75;5083486;28;45421;-80
2022/06/30 01:22:25;;;;;;;;;0.00;0.00;;;;;19.67;54.77;100740.22;5073702;28;45408;-80
2022/06/30 01:24:51;;;;;;;;;0.00;0.00;;;;;19.64;55.08;100732.22;5086078;28;45077;-78
2022/06/30 01:27:17;;;;;;;;;2.00;1.50;;;;;19.52;55.09;100704.66;5091841;28;45107;-85
2022/06/30 01:29:42;;;;;;;;;2.00;0.75;;;;;19.42;54.64;100697.59;5074553;28;47322;-87
2022/06/30 01:32:08;;;;;;;;;1.00;1.00;;;;;19.23;54.54;100664.75;5093741;28;45114;-87
2022/06/30 01:34:33;;;;;;;;;2.00;0.50;;;;;19.59;55.15;100719.78;5094164;28;45204;-83
2022/06/30 01:37:01;;;;;;;;;0.25;0.25;;;;;19.65;55.10;100723.31;5093885;28;44964;-82
2022/06/30 01:39:26;;;;;;;;;1.00;1.00;;;;;19.70;55.31;100721.53;5090239;28;45287;-84
2022/06/30 01:41:52;;;;;;;;;1.00;1.00;;;;;19.49;55.07;100699.34;5079439;27;45208;-84
2022/06/30 01:44:17;;;;;;;;;0.50;0.00;;;;;19.61;54.88;100718.91;5092553;27;45130;-81
2022/06/30 01:46:47;;;;;;;;;1.00;1.00;;;;;19.29;54.76;100670.06;5100129;27;45188;-82
2022/06/30 01:49:12;;;;;;;;;0.50;0.50;;;;;19.50;54.83;100709.09;5093054;27;45424;-85
2022/06/30 01:51:38;;;;;;;;;0.00;0.00;;;;;19.12;55.05;100647.03;5097861;27;44992;-83
2022/06/30 01:54:03;;;;;;;;;1.00;1.00;;;;;19.32;55.42;100664.75;5094765;27;45047;-81
2022/06/30 01:56:29;;;;;;;;;1.25;1.00;;;;;19.40;55.71;100683.34;5092778;27;45068;-80
2022/06/30 01:58:54;;;;;;;;;0.75;0.50;;;;;19.58;55.01;100723.31;5089190;27;45370;-82
2022/06/30 02:01:20;;;;;;;;;1.00;1.00;;;;;19.52;54.72;100717.13;5087545;27;45647;-81
2022/06/30 02:03:45;;;;;;;;;1.75;1.00;;;;;19.52;55.00;100742.00;5087960;28;45052;-80
2022/06/30 02:06:11;;;;;;;;;1.00;1.00;;;;;19.45;55.13;100734.00;5088651;28;45188;-80
2022/06/30 02:08:36;;;;;;;;;1.00;1.00;;;;;19.33;55.25;100717.13;5071232;28;45664;-83
2022/06/30 02:11:01;;;;;;;;;1.25;1.25;;;;;19.52;55.52;100741.09;5072354;28;45108;-84
2022/06/30 02:13:27;;;;;;;;;1.00;1.00;;;;;19.11;56.08;100671.88;5077415;28;44890;-80
2022/06/30 02:15:52;;;;;;;;;2.00;2.00;;;;;19.14;55.58;100677.22;5092883;28;44993;-84
2022/06/30 02:18:17;;;;;;;;;2.25;2.25;;;;;19.44;55.98;100718.91;5091061;28;45584;-80
2022/06/30 02:20:43;;;;;;;;;1.25;1.00;;;;;19.13;55.90;100663.00;5087781;28;44957;-83
2022/06/30 02:23:08;;;;;;;;;3.25;2.00;;;;;19.35;55.88;100703.81;5078520;28;45091;-85
2022/06/30 02:25:34;;;;;;;;;1.00;1.00;;;;;19.19;56.27;100684.28;5092040;28;45058;-83
2022/06/30 02:28:02;;;;;;;;;2.00;2.00;;;;;19.19;56.10;100700.28;5091957;28;45856;-85
2022/06/30 02:30:27;;;;;;;;;1.00;1.00;;;;;19.11;56.13;100679.84;5090354;28;45488;-80
2022/06/30 02:32:53;;;;;;;;;2.00;1.00;;;;;19.18;55.99;100701.19;5091877;28;45195;-86
2022/06/30 02:35:19;;;;;;;;;2.75;2.00;;;;;19.24;56.83;100730.47;5090396;28;45011;-85
2022/06/30 02:37:44;;;;;;;;;1.00;1.00;;;;;19.25;56.86;100744.69;5090452;28;45482;-84
2022/06/30 02:40:10;;;;;;;;;1.00;1.00;;;;;19.23;56.40;100752.69;5092281;28;44993;-81
2022/06/30 02:42:36;;;;;;;;;5.00;5.00;;;;;19.19;56.93;100755.34;5073408;28;46439;-83
2022/06/30 02:45:02;;;;;;;;;2.25;2.00;;;;;19.14;57.10;100754.47;5091375;28;45152;-84
2022/06/30 02:47:32;;;;;;;;;1.00;1.00;;;;;19.17;56.83;100743.81;5085605;28;45758;-85
2022/06/30 02:49:58;;;;;;;;;1.00;1.00;;;;;19.05;56.92;100721.59;5074316;28;45599;-80
2022/06/30 02:52:23;;;;;;;;;1.00;1.00;;;;;19.01;56.82;100713.59;5087040;28;45234;-85
2022/06/30 02:54:48;;;;;;;;;2.00;2.00;;;;;19.04;56.95;100708.28;5082649;28;48328;-82
2022/06/30 02:57:14;;;;;;;;;1.25;1.00;;;;;18.98;57.18;100706.53;5071773;28;45334;-83
2022/06/30 02:59:39;;;;;;;;;2.00;1.25;;;;;19.07;57.08;100727.84;5071437;28;45222;-84
2022/06/30 03:02:04;;;;;;;;;1.75;1.75;;;;;19.11;57.27;100751.78;5079923;28;44895;-84
2022/06/30 03:04:30;;;;;;;;;2.75;2.00;;;;;19.02;57.52;100742.94;5073095;28;45269;-84
2022/06/30 03:06:55;;;;;;;;;2.00;2.00;;;;;18.96;57.91;100729.59;5070414;28;46165;-85
2022/06/30 03:09:22;;;;;;;;;1.00;1.00;;;;;19.03;57.69;100735.81;5087147;28;44944;-86
2022/06/30 03:11:48;;;;;;;;;1.25;1.25;;;;;19.02;56.94;100726.06;5091840;28;44941;-83
2022/06/30 03:14:13;;;;;;;;;1.75;1.75;;;;;19.11;57.44;100734.03;5091071;28;45119;-85
2022/06/30 03:16:38;;;;;;;;;4.00;3.25;;;;;18.86;57.52;100685.19;5089124;28;46928;-82
2022/06/30 03:19:04;;;;;;;;;1.50;1.00;;;;;19.08;57.46;100707.41;5070931;28;49402;-84
2022/06/30 03:21:29;;;;;;;;;1.00;1.00;;;;;19.18;57.38;100719.84;5081569;28;45204;-84
2022/06/30 03:23:55;;;;;;;;;1.50;1.50;;;;;19.20;57.71;100730.47;5089743;28;45363;-80
2022/06/30 03:26:21;;;;;;;;;1.00;1.00;;;;;19.22;57.10;100734.94;5090396;28;45726;-79
2022/06/30 03:28:46;;;;;;;;;3.00;1.25;;;;;19.11;56.83;100714.50;5082400;28;45454;-82
2022/06/30 03:31:11;;;;;;;;;1.00;1.00;;;;;19.03;57.32;100718.06;5088648;28;45806;-82
2022/06/30 03:33:37;;;;;;;;;3.00;2.00;;;;;18.94;57.01;100717.19;5090958;28;45170;-86
2022/06/30 03:36:03;;;;;;;;;2.00;2.00;;;;;19.12;57.54;100759.81;5090908;28;46034;-80
2022/06/30 03:38:28;;;;;;;;;1.00;1.00;;;;;19.07;57.00;100746.47;5090434;28;45133;-84
2022/06/30 03:40:54;;;;;;;;;1.50;1.00;;;;;18.96;57.57;100732.25;5092004;28;44942;-84
2022/06/30 03:43:21;;;;;;;;;2.00;2.00;;;;;19.10;57.09;100734.91;5081817;28;45208;-85
2022/06/30 03:45:46;;;;;;;;;1.00;1.00;;;;;19.07;57.40;100740.28;5088810;28;45243;-82
2022/06/30 03:48:12;;;;;;;;;1.50;1.50;;;;;19.02;57.43;100726.06;5078687;28;45155;-85
2022/06/30 03:50:37;;;;;;;;;2.00;2.00;;;;;19.07;57.78;100751.81;5086883;28;45873;-80
2022/06/30 03:53:03;;;;;;;;;1.00;1.00;;;;;19.12;57.63;100753.59;5091379;28;45181;-84
2022/06/30 03:55:28;;;;;;;;;2.00;2.00;;;;;19.03;57.41;100754.47;5090289;28;45435;-85
2022/06/30 03:57:54;;;;;;;;;2.00;1.25;;;;;19.12;57.57;100766.91;5083286;28;45067;-85
2022/06/30 04:00:20;;;;;;;;;2.00;2.00;;;;;19.10;57.48;100758.91;5078277;28;45177;-80
2022/06/30 04:02:45;;;;;;;;;1.00;1.00;;;;;18.95;57.81;100730.50;5075780;28;45284;-81
2022/06/30 04:05:10;;;;;;;;;2.00;2.00;;;;;19.00;58.94;100743.81;5084394;28;45280;-82
2022/06/30 04:07:40;;;;;;;;;2.00;2.00;;;;;18.90;58.51;100724.28;5081032;28;45215;-83
2022/06/30 04:10:07;;;;;;;;;2.00;2.00;;;;;19.00;59.26;100750.03;5083908;28;45072;-82
2022/06/30 04:12:33;;;;;;;;;3.00;3.00;;;;;18.87;58.73;100737.59;5091075;28;44858;-81
2022/06/30 04:14:58;;;;;;;;;1.00;1.00;;;;;18.88;59.45;100736.72;5090376;28;50971;-83
2022/06/30 04:17:23;;;;;;;;;2.00;1.75;;;;;18.75;60.08;100714.50;5087785;28;45163;-86
2022/06/30 04:19:49;;;;;;;;;1.25;1.25;;;;;18.87;59.57;100745.59;5071335;28;44931;-81
2022/06/30 04:22:14;;;;;;;;;2.50;1.50;;;;;18.98;59.76;100782.88;5071016;28;45013;-85
2022/06/30 04:24:39;;;;;;;;;2.75;2.00;;;;;18.94;59.83;100800.63;5070867;28;46380;-86
2022/06/30 04:27:05;;;;;;;;;2.00;2.00;;;;;18.79;59.85;100771.31;5074615;28;45185;-80
2022/06/30 04:29:31;;;;;;;;;2.50;2.50;;;;;18.95;60.67;100791.75;5075545;28;45167;-80
2022/06/30 04:34:39;;;;;;;;;3.00;3.00;;;;;18.73;60.46;100769.53;5076554;28;45322;-85
2022/06/30 04:37:05;;;;;;;;;3.00;2.50;;;;;18.81;61.12;100777.53;5074091;28;45029;-85
2022/06/30 04:39:30;;;;;;;;;3.25;3.00;;;;;18.73;61.49;100771.31;5074425;28;44985;-85
2022/06/30 04:41:55;;;;;;;;;3.00;3.00;;;;;18.71;61.94;100775.72;5088951;28;45162;-81
2022/06/30 04:44:21;;;;;;;;;3.00;3.00;;;;;18.55;61.29;100743.72;5080625;28;48611;-79
2022/06/30 04:46:46;;;;;;;;;2.75;2.75;;;;;18.59;62.11;100743.75;5092751;28;45064;-82
2022/06/30 04:49:11;;;;;;;;;3.00;2.75;;;;;18.51;61.92;100723.31;5090982;28;45026;-81
2022/06/30 04:51:36;;;;;;;;;2.50;2.50;;;;;18.65;62.24;100746.41;5087105;28;45261;-80
2022/06/30 04:54:02;;;;;;;;;2.00;2.00;;;;;18.61;63.03;100737.53;5083733;28;45915;-81
2022/06/30 04:56:27;;;;;;;;;3.00;2.75;;;;;18.61;62.92;100726.00;5074182;27;45819;-85
2022/06/30 04:58:52;;;;;;;;;2.75;2.75;;;;;18.72;62.97;100734.94;5067698;27;45343;-83
2022/06/30 05:01:18;;;;;;;;;2.75;2.75;;;;;18.51;62.66;100715.31;5079803;27;47023;-82
2022/06/30 05:03:43;;;;;;;;;3.00;2.25;;;;;18.46;63.22;100714.44;5076430;27;54295;-82
2022/06/30 05:06:08;;;;;;;;;3.00;3.00;;;;;18.44;63.74;100720.66;5078334;28;45515;-85
2022/06/30 05:08:34;;;;;;;;;3.00;2.50;;;;;18.42;63.92;100715.34;5092476;28;45251;-87
2022/06/30 05:11:00;;;;;;;;;4.00;2.00;;;;;18.38;64.28;100717.97;5088567;28;45176;-80
2022/06/30 05:13:26;;;;;;;;;2.50;2.50;;;;;18.48;64.52;100733.97;5091674;28;45211;-80
2022/06/30 05:15:52;;;;;;;;;1.25;1.25;;;;;18.41;63.55;100723.28;5093943;28;45654;-80
2022/06/30 05:18:17;;;;;;;;;3.25;2.50;;;;;18.34;63.85;100702.88;5079148;28;44890;-83
2022/06/30 05:20:43;;;;;;;;;4.25;3.50;;;;;18.57;64.42;100757.06;5080351;28;45043;-80
2022/06/30 05:23:09;;;;;;;;;3.25;3.25;;;;;18.52;63.46;100746.41;5089083;28;45138;-81
2022/06/30 05:28:21;;;;;;;;;3.75;3.00;;;;;18.47;63.12;100766.78;5081389;28;45112;-80
2022/06/30 05:30:49;;;;;;;;;4.00;3.25;;;;;18.51;64.34;100776.53;5077418;28;45335;-80
2022/06/30 05:33:15;;;;;;;;;2.75;2.75;;;;;18.50;63.32;100782.75;5084728;28;45387;-80
2022/06/30 05:35:40;;;;;;;;;4.25;3.75;;;;;18.26;64.06;100732.13;5084596;28;44988;-86
2022/06/30 05:38:06;;;;;;;;;3.75;3.75;;;;;18.44;63.63;100766.78;5083225;28;45470;-81
2022/06/30 05:40:32;;;;;;;;;3.00;3.00;;;;;18.34;64.30;100749.00;5080334;28;45328;-83
2022/06/30 05:42:57;;;;;;;;;2.00;2.00;;;;;18.39;64.51;100762.34;5088686;27;46266;-81
2022/06/30 05:45:23;;;;;;;;;3.00;3.00;;;;;18.34;65.41;100757.00;5085489;27;45520;-82
2022/06/30 05:47:50;;;;;;;;;4.25;3.75;;;;;18.32;64.69;100756.06;5086480;28;45159;-81
2022/06/30 05:50:20;;;;;;;;;4.00;3.75;;;;;18.51;65.42;100791.63;5091105;28;46239;-85
2022/06/30 05:52:46;;;;;;;;;4.00;2.00;;;;;18.31;65.03;100755.19;5065005;28;46635;-81
2022/06/30 05:55:12;;;;;;;;;3.75;3.75;;;;;18.51;65.08;100784.53;5073620;28;45615;-85
2022/06/30 05:57:54;;;;;;;;;4.50;4.50;;;;;18.48;65.19;100792.53;5090994;28;45077;-85
2022/06/30 06:00:22;;;;;;;;;2.50;2.25;;;;;18.31;65.20;100743.66;5090716;28;45226;-82
2022/06/30 06:02:47;;;;;;;;;5.00;5.00;;;;;18.42;65.30;100752.59;5085432;28;45243;-86
2022/06/30 06:05:13;;;;;;;;;3.75;3.25;;;;;18.56;65.32;100790.75;5077707;27;45115;-86
2022/06/30 06:07:38;;;;;;;;;4.00;4.00;;;;;18.45;65.41;100762.34;5086126;28;45121;-80
2022/06/30 06:10:04;;;;;;;;;3.75;3.75;;;;;18.43;64.98;100757.03;5071700;28;45132;-80
2022/06/30 06:12:29;;;;;;;;;4.25;3.50;;;;;18.60;64.99;100782.78;5090307;28;45697;-84
2022/06/30 06:14:55;;;;;;;;;3.75;3.50;;;;;18.51;64.77;100762.34;5089515;28;45296;-81
2022/06/30 06:17:20;;;;;;;;;3.00;3.00;;;;;18.60;65.39;100777.47;5092005;28;45242;-82
2022/06/30 06:19:46;;;;;;;;;5.00;4.50;;;;;18.59;65.53;100762.38;5091631;28;45053;-80
2022/06/30 06:22:11;;;;;;;;;3.75;3.00;;;;;18.59;65.37;100743.75;5085169;28;45174;-83
2022/06/30 06:24:36;;;;;;;;;4.00;3.75;;;;;18.78;64.88;100780.19;5090173;28;45637;-80
2022/06/30 06:27:02;;;;;;;;;3.33;3.00;;;;;18.68;64.81;100752.66;5091807;28;45203;-81
2022/06/30 06:29:27;;;;;;;;;5.25;4.75;;;;;18.73;64.58;100768.66;5090956;28;44984;-85
2022/06/30 06:31:53;;;;;;;;;4.00;4.00;;;;;18.75;64.51;100778.41;5088065;28;46498;-87
2022/06/30 06:34:18;;;;;;;;;5.00;4.00;;;;;18.70;64.88;100764.19;5053239;28;44951;-85
2022/06/30 06:36:43;;;;;;;;;5.00;4.75;;;;;18.75;65.01;100774.84;5071523;28;44925;-79
2022/06/30 06:39:09;;;;;;;;;4.00;3.50;;;;;18.61;63.98;100763.25;5085756;28;45260;-79
2022/06/30 06:41:34;;;;;;;;;4.50;4.50;;;;;18.64;64.59;100788.13;5075343;28;45249;-79
2022/06/30 06:44:00;;;;;;;;;4.50;3.75;;;;;18.50;64.35;100766.78;5088891;28;45139;-81
2022/06/30 06:46:28;;;;;;;;;2.50;2.00;;;;;18.52;65.05;100777.44;5073507;28;45210;-83
2022/06/30 06:49:03;;;;;;;;;5.00;4.00;;;;;18.62;64.52;100812.94;5073559;28;45045;-81
2022/06/30 06:51:29;;;;;;;;;4.50;3.50;;;;;18.62;64.81;100815.59;5089045;28;45176;-80
2022/06/30 06:53:55;;;;;;;;;5.00;5.00;;;;;18.66;64.96;100830.72;5072429;28;45653;-85
2022/06/30 06:56:21;;;;;;;;;6.00;5.00;;;;;18.49;64.94;100802.28;5091471;28;45088;-85
2022/06/30 06:58:46;;;;;;;;;5.00;4.00;;;;;18.58;65.41;100817.41;5085870;28;45129;-83
2022/06/30 07:01:12;;;;;;;;;5.00;5.00;;;;;18.66;65.55;100822.72;5081256;28;45262;-88
2022/06/30 07:03:38;;;;;;;;;4.00;4.00;;;;;18.54;64.83;100804.97;5083127;28;45074;-87
2022/06/30 07:06:04;;;;;;;;;6.00;5.25;;;;;18.60;65.22;100820.06;5070548;28;45183;-83
2022/06/30 07:08:29;;;;;;;;;4.00;4.00;;;;;18.59;65.46;100818.28;5071808;28;45057;-87
2022/06/30 07:10:56;;;;;;;;;4.00;3.75;;;;;18.65;65.65;100826.28;5073567;28;45394;-83
2022/06/30 07:13:25;;;;;;;;;4.75;4.25;;;;;18.64;65.35;100824.50;5070490;28;45593;-86
2022/06/30 07:15:50;;;;;;;;;4.25;3.00;;;;;18.59;65.84;100823.59;5071305;28;45136;-81
2022/06/30 07:18:16;;;;;;;;;6.00;4.25;;;;;18.68;65.92;100839.63;5070904;28;44937;-86
2022/06/30 07:20:41;;;;;;;;;5.25;4.75;;;;;18.53;65.98;100800.53;5076739;28;45936;-88
2022/06/30 07:23:07;;;;;;;;;4.00;4.00;;;;;18.64;65.88;100827.16;5070371;28;45025;-80
2022/06/30 07:25:32;;;;;;;;;5.50;5.00;;;;;18.60;66.24;100812.06;5087520;28;45499;-84
2022/06/30 07:28:11;;;;;;;;;5.00;4.00;;;;;18.59;66.27;100802.31;5062824;27;45764;-88
2022/06/30 07:30:39;;;;;;;;;5.00;5.00;;;;;18.53;66.66;100793.41;5065247;28;45652;-84
2022/06/30 07:33:04;;;;;;;;;5.00;4.50;;;;;18.58;65.00;100796.09;5057663;28;45325;-84
2022/06/30 07:35:30;;;;;;;;;5.25;4.25;;;;;18.64;65.60;100805.88;5082673;28;45244;-81
2022/06/30 07:37:56;;;;;;;;;5.00;5.00;;;;;18.67;66.23;100805.84;5081365;27;45277;-82
2022/06/30 07:40:21;;;;;;;;;5.75;5.00;;;;;18.56;66.22;100788.09;5054298;28;47628;-84
2022/06/30 07:42:48;;;;;;;;;4.00;4.00;;;;;18.76;66.41;100814.78;5076777;27;45547;-82
2022/06/30 07:45:14;;;;;;;;;5.00;4.00;;;;;18.79;66.40;100824.56;5058500;28;45295;-79
2022/06/30 07:47:41;;;;;;;;;3.00;3.00;;;;;18.64;66.10;100801.44;5073804;28;45118;-85
2022/06/30 07:50:07;;;;;;;;;4.25;3.50;;;;;18.79;66.33;100837.88;5068110;28;45993;-78
2022/06/30 07:52:35;;;;;;;;;5.75;4.75;;;;;18.11;65.94;100711.69;5067962;28;45479;-78
2022/06/30 07:55:03;;;;;;;;;5.00;4.50;;;;;18.56;66.31;100796.06;5068209;28;45078;-80
2022/06/30 07:57:28;;;;;;;;;4.25;4.00;;;;;18.74;66.50;100829.00;5081251;28;45091;-82
2022/06/30 07:59:54;;;;;;;;;3.00;3.00;;;;;18.56;67.26;100800.50;5066792;28;47038;-85
2022/06/30 08:02:19;;;;;;;;;5.00;4.00;;;;;18.52;66.00;100791.66;5087231;28;45486;-86
2022/06/30 08:04:45;;;;;;;;;4.00;4.00;;;;;18.43;66.57;100786.31;5089879;27;45070;-78
2022/06/30 08:07:10;;;;;;;;;5.50;5.50;;;;;18.62;66.64;100827.19;5092582;28;45108;-85
2022/06/30 08:09:36;;;;;;;;;3.25;3.00;;;;;18.57;66.48;100820.94;5092474;28;46055;-80
2022/06/30 08:12:02;;;;;;;;;4.00;4.00;;;;;18.54;67.44;100827.13;5089362;28;45122;-87
2022/06/30 08:14:28;;;;;;;;;3.25;3.00;;;;;18.35;66.83;100792.47;5064355;28;45139;-80
2022/06/30 08:16:54;;;;;;;;;3.75;3.50;;;;;18.34;67.74;100786.25;5080460;28;44987;-83
2022/06/30 08:19:19;;;;;;;;;2.75;2.75;;;;;18.34;67.81;100775.63;5065234;27;45682;-83
2022/06/30 08:21:46;;;;;;;;;4.50;4.00;;;;;18.52;67.12;100794.31;5065768;28;45598;-78
2022/06/30 08:24:11;;;;;;;;;3.75;2.25;;;;;18.61;67.00;100813.84;5085410;28;45205;-88
2022/06/30 08:26:37;;;;;;;;;2.75;2.75;;;;;18.62;66.70;100808.53;5087245;28;45133;-84
2022/06/30 08:29:03;;;;;;;;;4.00;3.75;;;;;18.61;67.17;100800.53;5070093;28;46119;-78
2022/06/30 08:31:28;;;;;;;;;7.25;5.25;;;;;18.56;67.37;100798.72;5090269;28;45791;-84
2022/06/30 08:33:54;;;;;;;;;7.50;6.00;;;;;18.63;67.15;100804.97;5086026;28;45285;-83
2022/06/30 08:36:21;;;;;;;;;3.50;3.50;;;;;18.55;66.70;100802.28;5091163;28;45020;-84
2022/06/30 08:38:46;;;;;;;;;4.00;3.75;;;;;18.48;67.36;100796.97;5086437;27;45973;-88
2022/06/30 08:43:58;;;;;;;;;3.00;1.75;;;;;18.49;65.55;100793.41;5089367;28;45113;-83
2022/06/30 08:46:25;;;;;;;;;3.50;2.75;;;;;18.23;65.67;100756.06;5085877;28;45405;-79
2022/06/30 08:48:51;;;;;;;;;1.50;1.00;;;;;18.25;65.70;100760.50;5092094;27;45939;-87
2022/06/30 08:51:19;;;;;;;;;2.50;2.00;;;;;18.16;65.49;100757.81;5090586;28;45331;-88
2022/06/30 08:53:53;;;;;;;;;1.25;1.25;;;;;18.42;65.88;100799.56;5080943;28;45059;-85
2022/06/30 08:56:20;;;;;;;;;2.25;1.50;;;;;18.29;66.16;100780.03;5073200;28;45167;-88
2022/06/30 08:58:51;;;;;;;;;2.00;2.00;;;;;18.27;66.49;100764.06;5073008;28;47529;-79
2022/06/30 09:01:17;;;;;;;;;2.75;2.75;;;;;18.38;65.93;100779.19;5092210;28;45161;-83
2022/06/30 09:03:43;;;;;;;;;4.00;2.25;;;;;18.41;66.64;100776.50;5092528;28;45339;-79
2022/06/30 09:06:09;;;;;;;;;1.50;1.50;;;;;18.02;65.45;100711.66;5091768;28;44867;-79
2022/06/30 09:08:34;;;;;;;;;2.75;2.50;;;;;18.29;65.66;100753.44;5091445;27;46032;-83
2022/06/30 09:11:00;;;;;;;;;2.00;2.00;;;;;18.28;66.11;100759.63;5078488;28;44981;-83
2022/06/30 09:13:37;;;;;;;;;2.50;2.50;;;;;18.33;66.17;100764.97;5091621;28;44946;-80
2022/06/30 09:16:03;;;;;;;;;2.75;2.00;;;;;18.19;66.24;100743.63;5092126;28;45092;-81
2022/06/30 09:18:28;;;;;;;;;2.75;2.50;;;;;18.22;65.90;100770.25;5079492;27;45183;-80
2022/06/30 09:20:55;;;;;;;;;2.25;2.25;;;;;18.24;66.17;100790.66;5092145;28;45226;-83
2022/06/30 09:23:24;;;;;;;;;1.75;1.75;;;;;18.17;67.08;100790.63;5079253;28;45089;-79
2022/06/30 09:25:51;;;;;;;;;1.75;1.75;;;;;18.28;66.12;100810.19;5091873;28;45079;-84
2022/06/30 09:28:57;;;;;;;;;1.00;1.00;;;;;18.27;66.62;100809.31;5095825;27;45729;-84
2022/06/30 09:31:38;;;;;;;;;3.50;2.50;;;;;18.28;66.31;100813.75;5074498;28;45087;-81
2022/06/30 09:34:33;;;;;;;;;3.25;2.75;;;;;18.30;66.32;100811.06;5090975;28;45212;-82
2022/06/30 09:36:59;;;;;;;;;1.00;1.00;;;;;18.16;66.43;100788.84;5060852;27;45405;-82
2022/06/30 09:39:25;;;;;;;;;2.75;1.75;;;;;18.01;66.68;100766.59;5072273;28;46497;-80
2022/06/30 09:41:51;;;;;;;;;2.00;2.00;;;;;18.20;66.50;100804.81;5085752;28;49001;-81
2022/06/30 09:44:16;;;;;;;;;1.00;1.00;;;;;18.24;67.11;100803.97;5085561;27;46658;-80
2022/06/30 09:46:55;;;;;;;;;2.67;2.67;;;;;18.25;66.66;100792.44;5070976;28;45095;-84
2022/06/30 09:49:32;;;;;;;;;3.00;3.00;;;;;18.16;66.61;100784.41;5085539;27;45449;-80
2022/06/30 09:51:59;;;;;;;;;3.25;2.75;;;;;18.14;66.95;100779.97;5086966;28;45407;-81
2022/06/30 09:54:26;;;;;;;;;1.50;1.50;;;;;18.19;66.84;100794.19;5080367;28;45713;-82
2022/06/30 09:57:06;;;;;;;;;2.25;2.00;;;;;18.08;66.52;100770.22;5076214;28;45169;-81
2022/06/30 09:59:33;;;;;;;;;3.00;3.00;;;;;18.18;66.59;100792.41;5057944;28;45993;-84
2022/06/30 10:02:01;;;;;;;;;2.00;2.00;;;;;17.96;66.58;100768.34;5075932;27;45076;-85
2022/06/30 10:04:26;;;;;;;;;3.75;3.25;;;;;18.10;67.08;100781.72;5072777;28;45144;-80
2022/06/30 10:06:53;;;;;;;;;3.00;1.75;;;;;18.08;67.06;100782.59;5088568;28;45615;-80
2022/06/30 10:09:18;;;;;;;;;2.25;2.25;;;;;18.18;67.01;100793.31;5091299;27;45396;-81
2022/06/30 10:11:45;;;;;;;;;4.00;3.00;;;;;18.31;67.40;100818.16;5070046;28;45533;-84
2022/06/30 10:14:11;;;;;;;;;4.50;3.25;;;;;18.34;67.00;100825.28;5081355;28;45450;-82
2022/06/30 10:16:42;;;;;;;;;6.00;6.00;;;;;18.30;67.50;100832.38;5081838;28;45177;-80
2022/06/30 10:19:11;;;;;;;;;4.75;4.00;;;;;18.19;67.46;100818.13;5089146;27;45495;-79
2022/06/30 10:21:38;;;;;;;;;5.50;5.25;;;;;18.08;67.93;100820.75;5090794;28;45503;-81
2022/06/30 10:24:08;;;;;;;;;4.00;3.25;;;;;18.24;68.30;100853.63;5091590;28;44921;-84
2022/06/30 10:29:18;;;;;;;;;6.25;5.50;;;;;18.19;68.64;100855.38;5088505;27;45465;-81
2022/06/30 10:32:28;;;;;;;;;9.00;7.50;;;;;18.19;68.73;100852.72;5086506;28;45871;-80
2022/06/30 10:35:22;;;;;;;;;5.50;5.50;;;;;18.11;68.91;100841.13;5053745;28;45221;-79
2022/06/30 10:37:56;;;;;;;;;4.25;4.25;;;;;18.16;69.06;100850.91;5064930;28;45675;-80
2022/06/30 10:40:52;;;;;;;;;3.25;3.25;;;;;18.04;69.00;100838.44;5079910;27;46772;-79
2022/06/30 10:43:18;;;;;;;;;6.00;5.25;;;;;18.16;69.10;100858.00;5076586;28;45436;-79
2022/06/30 10:45:55;;;;;;;;;4.00;3.00;;;;;18.23;69.27;100862.50;5071657;28;45525;-84
2022/06/30 10:48:21;;;;;;;;;3.00;3.00;;;;;18.10;69.36;100839.38;5079264;27;45557;-79
2022/06/30 10:50:47;;;;;;;;;4.50;3.25;;;;;18.22;69.51;100877.53;5075635;28;45841;-83
2022/06/30 10:53:37;;;;;;;;;3.25;3.00;;;;;18.23;69.14;100883.78;5078772;28;45421;-79
2022/06/30 10:56:03;;;;;;;;;4.00;4.00;;;;;18.15;69.21;100869.53;5072136;28;45360;-82
2022/06/30 10:58:29;;;;;;;;;6.25;5.00;;;;;18.12;69.09;100854.44;5071988;28;45097;-80
2022/06/30 11:01:13;;;;;;;;;3.25;3.00;;;;;18.23;69.29;100865.16;5078482;27;45179;-81
2022/06/30 11:03:38;;;;;;;;;4.25;3.75;;;;;18.37;69.40;100878.50;5074714;28;45347;-83
2022/06/30 11:06:06;;;;;;;;;3.25;3.25;;;;;18.26;69.46;100849.19;5088177;28;45299;-79
2022/06/30 11:08:38;;;;;;;;;5.25;4.25;;;;;18.47;67.96;100875.91;5088735;28;45460;-82
2022/06/30 11:11:22;;;;;;;;;3.50;3.50;;;;;18.50;68.27;100873.25;5085083;28;45455;-79
2022/06/30 11:14:02;;;;;;;;;3.00;3.00;;;;;18.54;68.32;100890.13;5090613;28;45485;-80
2022/06/30 11:16:33;;;;;;;;;2.00;2.00;;;;;18.45;68.45;100875.00;5091695;28;44957;-82
2022/06/30 11:18:59;;;;;;;;;2.00;2.00;;;;;18.56;68.11;100891.03;5090958;28;44976;-81
2022/06/30 11:21:24;;;;;;;;;1.75;1.75;;;;;18.48;68.49;100863.50;5069457;28;47709;-82
2022/06/30 11:23:51;;;;;;;;;2.75;2.75;;;;;18.53;67.55;100875.94;5088762;28;45282;-80
2022/06/30 11:29:04;;;;;;;;;2.75;1.75;;;;;18.54;67.92;100847.53;5088731;28;45519;-82
2022/06/30 11:31:35;;;;;;;;;2.75;2.75;;;;;18.55;67.77;100828.03;5088352;28;46006;-82
2022/06/30 11:34:00;;;;;;;;;3.25;2.75;;;;;18.75;68.18;100860.06;5088478;28;45491;-82
2022/06/30 11:36:26;;;;;;;;;3.00;3.00;;;;;18.73;68.01;100844.09;5088846;28;45229;-80
2022/06/30 11:38:59;;;;;;;;;3.25;2.75;;;;;18.81;67.43;100863.63;5088892;28;44887;-82
2022/06/30 11:44:13;;;;;;;;;3.00;3.00;;;;;18.53;68.19;100836.00;5092412;28;45336;-80